LEVX/VGO METAR and TAF weather

Enter ICAO airport designator
Station Type Date Time Source
LEVX METAR 2020/04/04 10:30 UTC NOAA

LEVX 041030Z 19006KT 150V240 CAVOK 18/07 Q1011 NOSIG


Station Type Date Time Source
LEVX Decoded METAR 2020/04/04 10:30 UTC NOAA

Vigo / Peinador, Spain (LEVX) 42-13N 008-38W 255M
Apr 04, 2020 - 06:30 AM EDT / 2020.04.04 1030 UTC
Wind: from the S (190 degrees) at 7 MPH (6 KT) (direction variable):0
Visibility: greater than 7 mile(s):0
Temperature: 64 F (18 C)
Dew Point: 44 F (7 C)
Relative Humidity: 48%
Pressure (altimeter): 29.85 in. Hg (1011 hPa)
ob: LEVX 041030Z 19006KT 150V240 CAVOK 18/07 Q1011 NOSIG
cycle: 10

Station Type Date Time Source
LEVX TAF 2020/04/04 06:27 UTC NOAA

TAF LEVX 040500Z 0406/0506 VRB04KT CAVOK TX19/0415Z TN07/0406Z
TEMPO 0412/0424 18012KT PROB40
TEMPO 0421/0424 18015G27KT PROB30
TEMPO 0421/0424 3000 -RA BKN010
TEMPO 0500/0506 3000 RA BKN010

Example: see airport list